sensor_id;sensor_type;location;lat;lon;timestamp;temperature;humidity
70456;DHT22;57916;51.996;5.180;2023-07-13T00:01:32;21.10;60.50
70456;DHT22;57916;51.996;5.180;2023-07-13T00:03:59;21.10;60.80
70456;DHT22;57916;51.996;5.180;2023-07-13T00:06:26;21.00;61.10
70456;DHT22;57916;51.996;5.180;2023-07-13T00:08:57;20.90;61.50
70456;DHT22;57916;51.996;5.180;2023-07-13T00:11:24;20.90;61.70
70456;DHT22;57916;51.996;5.180;2023-07-13T00:13:51;20.90;61.80
70456;DHT22;57916;51.996;5.180;2023-07-13T00:16:18;20.90;61.90
70456;DHT22;57916;51.996;5.180;2023-07-13T00:18:46;20.90;62.30
70456;DHT22;57916;51.996;5.180;2023-07-13T00:21:14;20.90;61.90
70456;DHT22;57916;51.996;5.180;2023-07-13T00:23:42;20.80;62.00
70456;DHT22;57916;51.996;5.180;2023-07-13T00:26:10;20.80;62.10
70456;DHT22;57916;51.996;5.180;2023-07-13T00:28:39;20.80;62.20
70456;DHT22;57916;51.996;5.180;2023-07-13T00:31:07;20.70;62.50
70456;DHT22;57916;51.996;5.180;2023-07-13T00:33:35;20.70;62.60
70456;DHT22;57916;51.996;5.180;2023-07-13T00:36:03;20.70;62.70
70456;DHT22;57916;51.996;5.180;2023-07-13T00:38:30;20.70;63.10
70456;DHT22;57916;51.996;5.180;2023-07-13T00:40:57;20.70;63.20
70456;DHT22;57916;51.996;5.180;2023-07-13T00:43:27;20.70;63.10
70456;DHT22;57916;51.996;5.180;2023-07-13T00:46:20;20.70;63.10
70456;DHT22;57916;51.996;5.180;2023-07-13T00:48:49;20.70;63.30
70456;DHT22;57916;51.996;5.180;2023-07-13T00:51:19;20.70;63.30
70456;DHT22;57916;51.996;5.180;2023-07-13T00:53:47;20.70;63.30
70456;DHT22;57916;51.996;5.180;2023-07-13T00:56:15;20.60;63.30
70456;DHT22;57916;51.996;5.180;2023-07-13T00:58:42;20.50;63.60
70456;DHT22;57916;51.996;5.180;2023-07-13T01:01:09;20.50;64.00
70456;DHT22;57916;51.996;5.180;2023-07-13T01:03:36;20.40;64.30
70456;DHT22;57916;51.996;5.180;2023-07-13T01:06:04;20.30;64.50
70456;DHT22;57916;51.996;5.180;2023-07-13T01:08:32;20.30;64.90
70456;DHT22;57916;51.996;5.180;2023-07-13T01:11:00;20.20;65.10
70456;DHT22;57916;51.996;5.180;2023-07-13T01:13:27;20.20;65.40
70456;DHT22;57916;51.996;5.180;2023-07-13T01:15:56;20.20;65.50
70456;DHT22;57916;51.996;5.180;2023-07-13T01:18:26;20.30;66.60
70456;DHT22;57916;51.996;5.180;2023-07-13T01:21:00;20.30;65.60
70456;DHT22;57916;51.996;5.180;2023-07-13T01:23:28;20.20;65.50
70456;DHT22;57916;51.996;5.180;2023-07-13T01:25:56;20.20;65.50
70456;DHT22;57916;51.996;5.180;2023-07-13T01:28:25;20.20;65.70
70456;DHT22;57916;51.996;5.180;2023-07-13T01:30:55;20.10;65.70
70456;DHT22;57916;51.996;5.180;2023-07-13T01:33:23;20.10;65.70
70456;DHT22;57916;51.996;5.180;2023-07-13T01:35:51;20.10;65.80
70456;DHT22;57916;51.996;5.180;2023-07-13T01:38:20;20.00;65.80
70456;DHT22;57916;51.996;5.180;2023-07-13T01:40:47;20.00;65.90
70456;DHT22;57916;51.996;5.180;2023-07-13T01:43:15;20.00;66.10
70456;DHT22;57916;51.996;5.180;2023-07-13T01:45:44;19.90;66.10
70456;DHT22;57916;51.996;5.180;2023-07-13T01:48:13;19.90;66.40
70456;DHT22;57916;51.996;5.180;2023-07-13T01:50:41;19.90;66.50
70456;DHT22;57916;51.996;5.180;2023-07-13T01:53:08;19.80;66.60
70456;DHT22;57916;51.996;5.180;2023-07-13T01:55:35;19.80;66.70
70456;DHT22;57916;51.996;5.180;2023-07-13T01:58:04;19.80;66.80
70456;DHT22;57916;51.996;5.180;2023-07-13T02:00:32;19.80;67.00
70456;DHT22;57916;51.996;5.180;2023-07-13T02:03:01;19.80;67.10
70456;DHT22;57916;51.996;5.180;2023-07-13T02:05:29;19.80;67.20
70456;DHT22;57916;51.996;5.180;2023-07-13T02:07:56;19.80;67.40
70456;DHT22;57916;51.996;5.180;2023-07-13T02:10:25;19.90;67.30
70456;DHT22;57916;51.996;5.180;2023-07-13T02:12:52;19.90;67.40
70456;DHT22;57916;51.996;5.180;2023-07-13T02:15:19;19.90;67.40
70456;DHT22;57916;51.996;5.180;2023-07-13T02:17:46;19.80;67.50
70456;DHT22;57916;51.996;5.180;2023-07-13T02:20:13;19.80;67.70
70456;DHT22;57916;51.996;5.180;2023-07-13T02:22:40;19.70;68.00
70456;DHT22;57916;51.996;5.180;2023-07-13T02:25:07;19.70;68.30
70456;DHT22;57916;51.996;5.180;2023-07-13T02:27:35;19.70;68.60
70456;DHT22;57916;51.996;5.180;2023-07-13T02:30:02;19.70;68.60
70456;DHT22;57916;51.996;5.180;2023-07-13T02:32:29;19.70;68.70
70456;DHT22;57916;51.996;5.180;2023-07-13T02:34:56;19.70;68.70
70456;DHT22;57916;51.996;5.180;2023-07-13T02:37:23;19.70;68.70
70456;DHT22;57916;51.996;5.180;2023-07-13T02:39:51;19.70;68.70
70456;DHT22;57916;51.996;5.180;2023-07-13T02:42:18;19.70;68.70
70456;DHT22;57916;51.996;5.180;2023-07-13T02:44:45;19.70;68.70
70456;DHT22;57916;51.996;5.180;2023-07-13T02:47:12;19.70;68.70
70456;DHT22;57916;51.996;5.180;2023-07-13T02:49:39;19.70;68.70
70456;DHT22;57916;51.996;5.180;2023-07-13T02:52:07;19.70;68.80
70456;DHT22;57916;51.996;5.180;2023-07-13T02:54:34;19.70;68.90
70456;DHT22;57916;51.996;5.180;2023-07-13T02:57:01;19.70;68.80
70456;DHT22;57916;51.996;5.180;2023-07-13T02:59:28;19.70;68.80
70456;DHT22;57916;51.996;5.180;2023-07-13T03:01:55;19.70;69.00
70456;DHT22;57916;51.996;5.180;2023-07-13T03:04:23;19.70;69.00
70456;DHT22;57916;51.996;5.180;2023-07-13T03:06:50;19.60;69.10
70456;DHT22;57916;51.996;5.180;2023-07-13T03:09:17;19.50;69.20
70456;DHT22;57916;51.996;5.180;2023-07-13T03:11:53;19.50;69.60
70456;DHT22;57916;51.996;5.180;2023-07-13T03:14:26;19.50;69.90
70456;DHT22;57916;51.996;5.180;2023-07-13T03:16:53;19.50;69.90
70456;DHT22;57916;51.996;5.180;2023-07-13T03:19:23;19.50;70.00
70456;DHT22;57916;51.996;5.180;2023-07-13T03:21:51;19.50;69.90
70456;DHT22;57916;51.996;5.180;2023-07-13T03:24:18;19.50;69.90
70456;DHT22;57916;51.996;5.180;2023-07-13T03:26:45;19.50;70.90
70456;DHT22;57916;51.996;5.180;2023-07-13T03:29:12;19.40;70.00
70456;DHT22;57916;51.996;5.180;2023-07-13T03:31:39;19.30;70.20
70456;DHT22;57916;51.996;5.180;2023-07-13T03:34:06;19.30;70.50
70456;DHT22;57916;51.996;5.180;2023-07-13T03:36:35;19.30;70.80
70456;DHT22;57916;51.996;5.180;2023-07-13T03:39:05;19.30;71.10
70456;DHT22;57916;51.996;5.180;2023-07-13T03:42:02;19.20;71.20
70456;DHT22;57916;51.996;5.180;2023-07-13T03:44:29;19.30;71.40
70456;DHT22;57916;51.996;5.180;2023-07-13T03:46:56;19.30;71.60
70456;DHT22;57916;51.996;5.180;2023-07-13T03:49:25;19.20;71.60
70456;DHT22;57916;51.996;5.180;2023-07-13T03:51:53;19.20;71.80
70456;DHT22;57916;51.996;5.180;2023-07-13T03:54:20;19.20;72.00
70456;DHT22;57916;51.996;5.180;2023-07-13T03:56:47;19.20;72.10
70456;DHT22;57916;51.996;5.180;2023-07-13T03:59:16;19.20;72.00
70456;DHT22;57916;51.996;5.180;2023-07-13T04:01:45;19.20;72.00
70456;DHT22;57916;51.996;5.180;2023-07-13T04:04:12;19.20;71.90
70456;DHT22;57916;51.996;5.180;2023-07-13T04:06:39;19.20;72.10
70456;DHT22;57916;51.996;5.180;2023-07-13T04:09:06;19.20;72.30
70456;DHT22;57916;51.996;5.180;2023-07-13T04:11:34;19.20;72.40
70456;DHT22;57916;51.996;5.180;2023-07-13T04:14:03;19.20;72.50
70456;DHT22;57916;51.996;5.180;2023-07-13T04:16:31;19.20;72.70
70456;DHT22;57916;51.996;5.180;2023-07-13T04:18:59;19.20;72.80
70456;DHT22;57916;51.996;5.180;2023-07-13T04:21:29;19.20;72.80
70456;DHT22;57916;51.996;5.180;2023-07-13T04:23:57;19.20;72.80
70456;DHT22;57916;51.996;5.180;2023-07-13T04:26:24;19.20;73.00
70456;DHT22;57916;51.996;5.180;2023-07-13T04:28:51;19.20;73.10
70456;DHT22;57916;51.996;5.180;2023-07-13T04:31:19;19.20;73.30
70456;DHT22;57916;51.996;5.180;2023-07-13T04:33:46;19.20;73.40
70456;DHT22;57916;51.996;5.180;2023-07-13T04:36:16;19.20;73.50
70456;DHT22;57916;51.996;5.180;2023-07-13T04:38:43;19.20;73.70
70456;DHT22;57916;51.996;5.180;2023-07-13T04:41:12;19.20;73.80
70456;DHT22;57916;51.996;5.180;2023-07-13T04:43:39;19.20;73.60
70456;DHT22;57916;51.996;5.180;2023-07-13T04:46:09;19.20;73.50
70456;DHT22;57916;51.996;5.180;2023-07-13T04:48:38;19.20;73.70
70456;DHT22;57916;51.996;5.180;2023-07-13T04:51:06;19.20;73.80
70456;DHT22;57916;51.996;5.180;2023-07-13T04:53:33;19.30;73.90
70456;DHT22;57916;51.996;5.180;2023-07-13T04:56:02;19.30;73.90
70456;DHT22;57916;51.996;5.180;2023-07-13T04:58:29;19.30;73.90
70456;DHT22;57916;51.996;5.180;2023-07-13T05:01:04;19.30;74.00
70456;DHT22;57916;51.996;5.180;2023-07-13T05:03:32;19.30;74.10
70456;DHT22;57916;51.996;5.180;2023-07-13T05:06:05;19.30;74.20
70456;DHT22;57916;51.996;5.180;2023-07-13T05:08:33;19.30;74.20
70456;DHT22;57916;51.996;5.180;2023-07-13T05:11:01;19.30;74.40
70456;DHT22;57916;51.996;5.180;2023-07-13T05:13:28;19.30;74.50
70456;DHT22;57916;51.996;5.180;2023-07-13T05:16:03;19.40;74.60
70456;DHT22;57916;51.996;5.180;2023-07-13T05:18:31;19.40;74.70
70456;DHT22;57916;51.996;5.180;2023-07-13T05:21:04;19.50;74.60
70456;DHT22;57916;51.996;5.180;2023-07-13T05:23:34;19.50;74.60
70456;DHT22;57916;51.996;5.180;2023-07-13T05:26:01;19.50;74.60
70456;DHT22;57916;51.996;5.180;2023-07-13T05:28:32;19.60;74.40
70456;DHT22;57916;51.996;5.180;2023-07-13T05:30:59;19.70;74.40
70456;DHT22;57916;51.996;5.180;2023-07-13T05:33:27;19.70;74.40
70456;DHT22;57916;51.996;5.180;2023-07-13T05:35:54;19.70;74.40
70456;DHT22;57916;51.996;5.180;2023-07-13T05:38:22;19.70;74.50
70456;DHT22;57916;51.996;5.180;2023-07-13T05:40:50;19.80;74.80
70456;DHT22;57916;51.996;5.180;2023-07-13T05:43:17;19.80;74.50
70456;DHT22;57916;51.996;5.180;2023-07-13T05:45:44;19.90;74.50
70456;DHT22;57916;51.996;5.180;2023-07-13T05:48:11;19.90;74.50
70456;DHT22;57916;51.996;5.180;2023-07-13T05:50:38;20.00;74.70
70456;DHT22;57916;51.996;5.180;2023-07-13T05:53:06;20.00;74.20
70456;DHT22;57916;51.996;5.180;2023-07-13T05:55:33;20.10;74.00
70456;DHT22;57916;51.996;5.180;2023-07-13T05:58:01;20.10;73.70
70456;DHT22;57916;51.996;5.180;2023-07-13T06:00:28;20.10;73.90
70456;DHT22;57916;51.996;5.180;2023-07-13T06:02:56;20.20;74.10
70456;DHT22;57916;51.996;5.180;2023-07-13T06:05:23;20.20;74.10
70456;DHT22;57916;51.996;5.180;2023-07-13T06:07:51;20.30;73.80
70456;DHT22;57916;51.996;5.180;2023-07-13T06:10:18;20.30;73.80
70456;DHT22;57916;51.996;5.180;2023-07-13T06:12:45;20.40;73.80
70456;DHT22;57916;51.996;5.180;2023-07-13T06:15:12;20.40;73.80
70456;DHT22;57916;51.996;5.180;2023-07-13T06:17:39;20.50;73.50
70456;DHT22;57916;51.996;5.180;2023-07-13T06:20:06;20.50;73.50
70456;DHT22;57916;51.996;5.180;2023-07-13T06:22:34;20.50;73.50
70456;DHT22;57916;51.996;5.180;2023-07-13T06:25:01;20.60;73.10
70456;DHT22;57916;51.996;5.180;2023-07-13T06:27:28;20.70;72.90
70456;DHT22;57916;51.996;5.180;2023-07-13T06:29:57;20.80;72.80
70456;DHT22;57916;51.996;5.180;2023-07-13T06:32:24;20.90;72.30
70456;DHT22;57916;51.996;5.180;2023-07-13T06:34:51;20.90;72.40
70456;DHT22;57916;51.996;5.180;2023-07-13T06:37:21;21.00;72.00
70456;DHT22;57916;51.996;5.180;2023-07-13T06:39:48;21.00;71.90
70456;DHT22;57916;51.996;5.180;2023-07-13T06:42:16;21.00;71.90
70456;DHT22;57916;51.996;5.180;2023-07-13T06:44:44;21.00;72.10
70456;DHT22;57916;51.996;5.180;2023-07-13T06:47:11;21.10;71.60
70456;DHT22;57916;51.996;5.180;2023-07-13T06:49:38;21.20;71.70
70456;DHT22;57916;51.996;5.180;2023-07-13T06:52:05;21.20;71.50
70456;DHT22;57916;51.996;5.180;2023-07-13T06:54:33;21.30;71.30
70456;DHT22;57916;51.996;5.180;2023-07-13T06:57:02;21.30;71.00
70456;DHT22;57916;51.996;5.180;2023-07-13T06:59:29;21.40;71.10
70456;DHT22;57916;51.996;5.180;2023-07-13T07:01:56;21.40;70.80
70456;DHT22;57916;51.996;5.180;2023-07-13T07:04:23;21.50;70.60
70456;DHT22;57916;51.996;5.180;2023-07-13T07:06:50;21.60;70.90
70456;DHT22;57916;51.996;5.180;2023-07-13T07:09:17;21.60;70.80
70456;DHT22;57916;51.996;5.180;2023-07-13T07:11:44;21.70;70.70
70456;DHT22;57916;51.996;5.180;2023-07-13T07:14:28;21.70;70.80
70456;DHT22;57916;51.996;5.180;2023-07-13T07:16:55;21.80;71.00
70456;DHT22;57916;51.996;5.180;2023-07-13T07:19:22;21.80;70.80
70456;DHT22;57916;51.996;5.180;2023-07-13T07:21:49;21.80;71.10
70456;DHT22;57916;51.996;5.180;2023-07-13T07:24:16;21.80;71.30
70456;DHT22;57916;51.996;5.180;2023-07-13T07:26:43;21.80;71.40
70456;DHT22;57916;51.996;5.180;2023-07-13T07:29:13;21.80;71.20
70456;DHT22;57916;51.996;5.180;2023-07-13T07:31:43;21.80;71.30
70456;DHT22;57916;51.996;5.180;2023-07-13T07:34:13;21.80;71.20
70456;DHT22;57916;51.996;5.180;2023-07-13T07:36:40;21.80;71.20
70456;DHT22;57916;51.996;5.180;2023-07-13T07:39:10;21.80;71.60
70456;DHT22;57916;51.996;5.180;2023-07-13T07:41:37;21.80;71.30
70456;DHT22;57916;51.996;5.180;2023-07-13T07:44:07;21.70;71.00
70456;DHT22;57916;51.996;5.180;2023-07-13T07:46:36;21.70;71.80
70456;DHT22;57916;51.996;5.180;2023-07-13T07:49:04;21.80;72.80
70456;DHT22;57916;51.996;5.180;2023-07-13T07:51:31;21.80;72.70
70456;DHT22;57916;51.996;5.180;2023-07-13T07:53:58;22.00;72.20
70456;DHT22;57916;51.996;5.180;2023-07-13T07:56:25;22.10;72.40
70456;DHT22;57916;51.996;5.180;2023-07-13T07:58:55;22.30;72.00
70456;DHT22;57916;51.996;5.180;2023-07-13T08:01:25;22.50;71.00
70456;DHT22;57916;51.996;5.180;2023-07-13T08:03:55;22.60;68.90
70456;DHT22;57916;51.996;5.180;2023-07-13T08:06:25;22.60;67.70
70456;DHT22;57916;51.996;5.180;2023-07-13T08:08:55;22.60;66.60
70456;DHT22;57916;51.996;5.180;2023-07-13T08:11:22;22.70;66.70
70456;DHT22;57916;51.996;5.180;2023-07-13T08:13:52;22.70;66.30
70456;DHT22;57916;51.996;5.180;2023-07-13T08:16:22;22.60;65.00
70456;DHT22;57916;51.996;5.180;2023-07-13T08:18:50;22.50;64.60
70456;DHT22;57916;51.996;5.180;2023-07-13T08:21:17;22.40;64.60
70456;DHT22;57916;51.996;5.180;2023-07-13T08:23:46;22.30;64.60
70456;DHT22;57916;51.996;5.180;2023-07-13T08:26:13;22.20;65.10
70456;DHT22;57916;51.996;5.180;2023-07-13T08:28:41;22.10;66.00
70456;DHT22;57916;51.996;5.180;2023-07-13T08:31:09;22.10;66.70
70456;DHT22;57916;51.996;5.180;2023-07-13T08:33:38;22.00;67.50
70456;DHT22;57916;51.996;5.180;2023-07-13T08:36:05;21.90;68.80
70456;DHT22;57916;51.996;5.180;2023-07-13T08:38:33;21.90;68.70
70456;DHT22;57916;51.996;5.180;2023-07-13T08:41:09;21.80;69.00
70456;DHT22;57916;51.996;5.180;2023-07-13T08:43:38;21.80;69.30
70456;DHT22;57916;51.996;5.180;2023-07-13T08:46:17;21.80;69.10
70456;DHT22;57916;51.996;5.180;2023-07-13T08:48:56;21.80;68.80
70456;DHT22;57916;51.996;5.180;2023-07-13T08:51:38;21.80;68.30
70456;DHT22;57916;51.996;5.180;2023-07-13T08:54:29;22.00;69.60
70456;DHT22;57916;51.996;5.180;2023-07-13T08:56:59;22.30;69.00
70456;DHT22;57916;51.996;5.180;2023-07-13T08:59:29;22.70;66.80
70456;DHT22;57916;51.996;5.180;2023-07-13T09:04:39;23.50;64.40
70456;DHT22;57916;51.996;5.180;2023-07-13T09:12:45;24.60;61.60
70456;DHT22;57916;51.996;5.180;2023-07-13T09:15:28;24.90;59.20
70456;DHT22;57916;51.996;5.180;2023-07-13T09:18:03;25.10;58.30
70456;DHT22;57916;51.996;5.180;2023-07-13T09:20:40;25.40;59.70
70456;DHT22;57916;51.996;5.180;2023-07-13T09:23:17;25.70;59.70
70456;DHT22;57916;51.996;5.180;2023-07-13T09:25:58;26.00;56.40
70456;DHT22;57916;51.996;5.180;2023-07-13T09:28:29;26.00;54.80
70456;DHT22;57916;51.996;5.180;2023-07-13T09:31:07;25.80;55.10
70456;DHT22;57916;51.996;5.180;2023-07-13T09:33:35;25.80;55.10
70456;DHT22;57916;51.996;5.180;2023-07-13T09:38:48;25.60;54.00
70456;DHT22;57916;51.996;5.180;2023-07-13T09:41:23;25.50;55.10
70456;DHT22;57916;51.996;5.180;2023-07-13T09:44:11;25.60;53.40
70456;DHT22;57916;51.996;5.180;2023-07-13T09:46:53;25.50;53.40
70456;DHT22;57916;51.996;5.180;2023-07-13T09:49:29;25.50;54.90
70456;DHT22;57916;51.996;5.180;2023-07-13T09:52:03;25.40;54.40
70456;DHT22;57916;51.996;5.180;2023-07-13T09:54:33;25.40;54.30
70456;DHT22;57916;51.996;5.180;2023-07-13T09:57:03;25.30;52.60
70456;DHT22;57916;51.996;5.180;2023-07-13T09:59:34;25.10;52.10
70456;DHT22;57916;51.996;5.180;2023-07-13T10:02:01;25.00;52.70
70456;DHT22;57916;51.996;5.180;2023-07-13T10:04:33;24.90;53.20
70456;DHT22;57916;51.996;5.180;2023-07-13T10:07:12;24.80;55.70
70456;DHT22;57916;51.996;5.180;2023-07-13T10:10:00;25.00;56.90
70456;DHT22;57916;51.996;5.180;2023-07-13T10:12:29;25.30;56.10
70456;DHT22;57916;51.996;5.180;2023-07-13T10:14:59;25.60;52.40
70456;DHT22;57916;51.996;5.180;2023-07-13T10:17:47;25.50;51.50
70456;DHT22;57916;51.996;5.180;2023-07-13T10:20:15;25.40;51.10
70456;DHT22;57916;51.996;5.180;2023-07-13T10:23:09;25.30;52.20
70456;DHT22;57916;51.996;5.180;2023-07-13T10:25:39;25.30;53.30
70456;DHT22;57916;51.996;5.180;2023-07-13T10:28:21;25.30;53.30
70456;DHT22;57916;51.996;5.180;2023-07-13T10:30:52;25.30;54.00
70456;DHT22;57916;51.996;5.180;2023-07-13T10:33:21;25.40;53.90
70456;DHT22;57916;51.996;5.180;2023-07-13T10:35:52;25.60;53.90
70456;DHT22;57916;51.996;5.180;2023-07-13T10:38:22;25.80;53.00
70456;DHT22;57916;51.996;5.180;2023-07-13T10:41:03;26.10;52.50
70456;DHT22;57916;51.996;5.180;2023-07-13T10:43:42;26.40;50.70
70456;DHT22;57916;51.996;5.180;2023-07-13T10:46:13;26.60;51.00
70456;DHT22;57916;51.996;5.180;2023-07-13T10:48:43;26.90;50.50
70456;DHT22;57916;51.996;5.180;2023-07-13T10:51:13;27.30;48.10
70456;DHT22;57916;51.996;5.180;2023-07-13T10:53:41;27.40;48.90
70456;DHT22;57916;51.996;5.180;2023-07-13T10:56:28;27.70;48.60
70456;DHT22;57916;51.996;5.180;2023-07-13T10:59:15;27.90;47.50
70456;DHT22;57916;51.996;5.180;2023-07-13T11:04:25;27.90;47.00
70456;DHT22;57916;51.996;5.180;2023-07-13T11:06:57;27.90;46.90
70456;DHT22;57916;51.996;5.180;2023-07-13T11:09:38;27.90;47.50
70456;DHT22;57916;51.996;5.180;2023-07-13T11:14:39;27.80;46.90
70456;DHT22;57916;51.996;5.180;2023-07-13T11:20:19;27.50;46.80
70456;DHT22;57916;51.996;5.180;2023-07-13T11:25:40;27.00;47.40
70456;DHT22;57916;51.996;5.180;2023-07-13T11:33:17;26.80;50.50
70456;DHT22;57916;51.996;5.180;2023-07-13T11:43:49;27.50;47.30
70456;DHT22;57916;51.996;5.180;2023-07-13T11:46:20;27.70;47.70
70456;DHT22;57916;51.996;5.180;2023-07-13T11:48:49;27.70;45.10
70456;DHT22;57916;51.996;5.180;2023-07-13T11:51:35;27.60;45.80
70456;DHT22;57916;51.996;5.180;2023-07-13T11:54:14;27.40;44.90
70456;DHT22;57916;51.996;5.180;2023-07-13T11:56:43;27.30;44.20
70456;DHT22;57916;51.996;5.180;2023-07-13T11:59:13;27.10;44.40
70456;DHT22;57916;51.996;5.180;2023-07-13T12:01:49;27.10;44.60
70456;DHT22;57916;51.996;5.180;2023-07-13T12:06:57;27.40;44.80
70456;DHT22;57916;51.996;5.180;2023-07-13T12:09:27;27.50;43.70
70456;DHT22;57916;51.996;5.180;2023-07-13T12:11:57;27.50;44.80
70456;DHT22;57916;51.996;5.180;2023-07-13T12:14:24;27.50;44.20
70456;DHT22;57916;51.996;5.180;2023-07-13T12:16:54;27.50;44.40
70456;DHT22;57916;51.996;5.180;2023-07-13T12:19:24;27.60;44.60
70456;DHT22;57916;51.996;5.180;2023-07-13T12:21:57;27.50;43.50
70456;DHT22;57916;51.996;5.180;2023-07-13T12:24:25;27.50;43.20
70456;DHT22;57916;51.996;5.180;2023-07-13T12:27:01;27.50;43.30
70456;DHT22;57916;51.996;5.180;2023-07-13T12:29:31;27.40;44.20
70456;DHT22;57916;51.996;5.180;2023-07-13T12:31:58;27.40;43.30
70456;DHT22;57916;51.996;5.180;2023-07-13T12:34:26;27.30;43.50
70456;DHT22;57916;51.996;5.180;2023-07-13T12:37:02;27.20;43.80
70456;DHT22;57916;51.996;5.180;2023-07-13T12:39:35;27.10;43.80
70456;DHT22;57916;51.996;5.180;2023-07-13T12:42:26;27.20;43.00
70456;DHT22;57916;51.996;5.180;2023-07-13T12:47:48;27.10;43.10
70456;DHT22;57916;51.996;5.180;2023-07-13T12:50:18;27.10;43.30
70456;DHT22;57916;51.996;5.180;2023-07-13T12:52:52;27.20;44.30
70456;DHT22;57916;51.996;5.180;2023-07-13T12:55:21;27.20;43.10
70456;DHT22;57916;51.996;5.180;2023-07-13T12:57:56;27.20;42.70
70456;DHT22;57916;51.996;5.180;2023-07-13T13:00:33;27.20;44.00
70456;DHT22;57916;51.996;5.180;2023-07-13T13:06:06;27.20;43.00
70456;DHT22;57916;51.996;5.180;2023-07-13T13:08:35;27.10;42.00
70456;DHT22;57916;51.996;5.180;2023-07-13T13:11:03;27.20;42.00
70456;DHT22;57916;51.996;5.180;2023-07-13T13:13:30;27.10;42.30
70456;DHT22;57916;51.996;5.180;2023-07-13T13:16:02;27.00;43.30
70456;DHT22;57916;51.996;5.180;2023-07-13T13:18:33;27.10;42.80
70456;DHT22;57916;51.996;5.180;2023-07-13T13:21:00;27.10;41.60
70456;DHT22;57916;51.996;5.180;2023-07-13T13:23:27;27.10;42.80
70456;DHT22;57916;51.996;5.180;2023-07-13T13:25:55;27.10;41.30
70456;DHT22;57916;51.996;5.180;2023-07-13T13:28:22;27.00;41.40
70456;DHT22;57916;51.996;5.180;2023-07-13T13:30:51;27.00;41.80
70456;DHT22;57916;51.996;5.180;2023-07-13T13:33:20;26.90;42.40
70456;DHT22;57916;51.996;5.180;2023-07-13T13:35:47;26.90;43.80
70456;DHT22;57916;51.996;5.180;2023-07-13T13:38:16;26.90;41.90
70456;DHT22;57916;51.996;5.180;2023-07-13T13:40:44;26.80;42.70
70456;DHT22;57916;51.996;5.180;2023-07-13T13:43:18;26.80;42.90
70456;DHT22;57916;51.996;5.180;2023-07-13T13:45:46;26.80;43.00
70456;DHT22;57916;51.996;5.180;2023-07-13T13:48:26;26.70;44.00
70456;DHT22;57916;51.996;5.180;2023-07-13T13:50:57;26.70;42.40
70456;DHT22;57916;51.996;5.180;2023-07-13T13:53:24;26.70;41.90
70456;DHT22;57916;51.996;5.180;2023-07-13T13:55:52;26.60;41.90
70456;DHT22;57916;51.996;5.180;2023-07-13T13:58:19;26.60;42.10
70456;DHT22;57916;51.996;5.180;2023-07-13T14:00:47;26.70;42.60
70456;DHT22;57916;51.996;5.180;2023-07-13T14:03:19;26.70;42.30
70456;DHT22;57916;51.996;5.180;2023-07-13T14:05:47;26.70;43.20
70456;DHT22;57916;51.996;5.180;2023-07-13T14:08:17;26.70;44.90
70456;DHT22;57916;51.996;5.180;2023-07-13T14:10:46;26.70;41.30
70456;DHT22;57916;51.996;5.180;2023-07-13T14:13:26;26.60;41.10
70456;DHT22;57916;51.996;5.180;2023-07-13T14:15:54;26.60;42.60
70456;DHT22;57916;51.996;5.180;2023-07-13T14:18:21;26.60;43.80
70456;DHT22;57916;51.996;5.180;2023-07-13T14:20:48;26.50;42.60
70456;DHT22;57916;51.996;5.180;2023-07-13T14:23:16;26.60;43.90
70456;DHT22;57916;51.996;5.180;2023-07-13T14:25:46;26.60;43.50
70456;DHT22;57916;51.996;5.180;2023-07-13T14:28:25;26.70;42.60
70456;DHT22;57916;51.996;5.180;2023-07-13T14:30:53;26.70;42.80
70456;DHT22;57916;51.996;5.180;2023-07-13T14:33:21;26.70;42.30
70456;DHT22;57916;51.996;5.180;2023-07-13T14:35:49;26.70;44.10
70456;DHT22;57916;51.996;5.180;2023-07-13T14:38:19;26.70;42.80
70456;DHT22;57916;51.996;5.180;2023-07-13T14:40:47;26.70;42.40
70456;DHT22;57916;51.996;5.180;2023-07-13T14:43:15;26.80;41.30
70456;DHT22;57916;51.996;5.180;2023-07-13T14:45:48;26.80;41.60
70456;DHT22;57916;51.996;5.180;2023-07-13T14:48:21;26.80;40.80
70456;DHT22;57916;51.996;5.180;2023-07-13T14:50:54;26.90;41.90
70456;DHT22;57916;51.996;5.180;2023-07-13T14:53:24;26.90;41.50
70456;DHT22;57916;51.996;5.180;2023-07-13T14:55:51;26.80;40.50
70456;DHT22;57916;51.996;5.180;2023-07-13T14:58:19;26.80;41.30
70456;DHT22;57916;51.996;5.180;2023-07-13T15:00:46;26.80;42.20
70456;DHT22;57916;51.996;5.180;2023-07-13T15:03:21;26.80;42.00
70456;DHT22;57916;51.996;5.180;2023-07-13T15:05:49;26.70;40.90
70456;DHT22;57916;51.996;5.180;2023-07-13T15:08:16;26.60;41.50
70456;DHT22;57916;51.996;5.180;2023-07-13T15:10:43;26.60;41.60
70456;DHT22;57916;51.996;5.180;2023-07-13T15:13:19;26.60;41.10
70456;DHT22;57916;51.996;5.180;2023-07-13T15:15:50;26.50;41.80
70456;DHT22;57916;51.996;5.180;2023-07-13T15:18:20;26.40;41.80
70456;DHT22;57916;51.996;5.180;2023-07-13T15:20:50;26.40;42.00
70456;DHT22;57916;51.996;5.180;2023-07-13T15:23:19;26.40;42.00
70456;DHT22;57916;51.996;5.180;2023-07-13T15:25:46;26.40;42.00
70456;DHT22;57916;51.996;5.180;2023-07-13T15:28:13;26.40;42.60
70456;DHT22;57916;51.996;5.180;2023-07-13T15:30:48;26.40;42.60
70456;DHT22;57916;51.996;5.180;2023-07-13T15:33:27;26.50;42.40
70456;DHT22;57916;51.996;5.180;2023-07-13T15:35:55;26.40;40.90
70456;DHT22;57916;51.996;5.180;2023-07-13T15:38:28;26.40;41.90
70456;DHT22;57916;51.996;5.180;2023-07-13T15:40:56;26.50;42.30
70456;DHT22;57916;51.996;5.180;2023-07-13T15:43:39;26.40;41.50
70456;DHT22;57916;51.996;5.180;2023-07-13T15:46:06;26.50;41.80
70456;DHT22;57916;51.996;5.180;2023-07-13T15:48:33;26.50;42.20
70456;DHT22;57916;51.996;5.180;2023-07-13T15:51:02;26.50;42.30
70456;DHT22;57916;51.996;5.180;2023-07-13T15:53:32;26.50;42.90
70456;DHT22;57916;51.996;5.180;2023-07-13T15:56:02;26.50;42.30
70456;DHT22;57916;51.996;5.180;2023-07-13T15:58:29;26.50;43.20
70456;DHT22;57916;51.996;5.180;2023-07-13T16:00:56;26.60;42.70
70456;DHT22;57916;51.996;5.180;2023-07-13T16:03:24;26.60;42.50
70456;DHT22;57916;51.996;5.180;2023-07-13T16:05:52;26.60;42.50
70456;DHT22;57916;51.996;5.180;2023-07-13T16:08:30;26.60;42.60
70456;DHT22;57916;51.996;5.180;2023-07-13T16:11:00;26.50;42.60
70456;DHT22;57916;51.996;5.180;2023-07-13T16:13:27;26.50;43.00
70456;DHT22;57916;51.996;5.180;2023-07-13T16:15:54;26.50;42.90
70456;DHT22;57916;51.996;5.180;2023-07-13T16:18:34;26.40;42.40
70456;DHT22;57916;51.996;5.180;2023-07-13T16:21:01;26.40;42.90
70456;DHT22;57916;51.996;5.180;2023-07-13T16:23:30;26.30;42.80
70456;DHT22;57916;51.996;5.180;2023-07-13T16:25:59;26.30;43.30
70456;DHT22;57916;51.996;5.180;2023-07-13T16:28:26;26.30;43.60
70456;DHT22;57916;51.996;5.180;2023-07-13T16:30:54;26.20;43.50